AR30 weather

Baptist Memorial Hospital-Blytheville Heliport
Blytheville, Arkansas, United States

Public forecast

Using degrees Fahrenheit for public forecast. Weather courtesy of forecast.io.

METAR (pilot weather report)

Report is more than 6 hours old.

Closest report is Arkansas International Airport, 1.8 nm (3.4 km) NW. Retrieved 2019/05/22 21:50 UTC (15 hours ago):

KBYH 222150Z 21012G19KT 10SM BKN033 30/24 A2993 RMK LAST

TAF (pilot weather forecast)

Closest forecast is Jonesboro Municipal Airport, 36.1 nm (66.9 km) W. Retrieved 2019/05/23 12:22 UTC (36 minutes ago):

TAF KJBR 231120Z 2312/2412 19007KT P6SM SCT250 FM231500 21012G18KT P6SM SCT040 SCT250 FM240200 19004KT P6SM SKC